Metar Cercanos

 

LEPA - Palma De Mallorc, Spain
Distance from station: ONO 38km
Actualización: Thu, 08-Dec-2022 5:00pm CET
Parcialmente nuboso
Parcialmente nuboso
 Viento del varies
Viento: varies 4 km/h
Temperatura: 17°C
Rocío: 14°C
Humedad: 83%
Barómetro: 1005 hPa
Clouds: Parcialmente nuboso
Visibility: 10 km
Cloud details: Few Clouds 549 m
Parcialmente nuboso 914 m
2022/12/08 16:00 LEPA 081600Z VRB02KT 9999 FEW018 SCT030 17/14 Q1005 NOSIG
LEMH - Mahon/Menorca Is, Spain
Distance from station: ENE 105km
Actualización: Thu, 08-Dec-2022 5:00pm CET
Few Clouds
Few Clouds
 Viento del S
Viento: S 15 km/h
Temperatura: 16°C
Rocío: 13°C
Humedad: 83%
Barómetro: 1006 hPa
Clouds: Few Clouds
Visibility: 10 km
Cloud details: Few Clouds 518 m
2022/12/08 16:00 LEMH 081600Z 18008KT 9999 FEW017 16/13 Q1006
 
LEIB - Ibiza/Es Codola, Spain
Distance from station: OSO 165km
Actualización: Thu, 08-Dec-2022 5:00pm CET
Few Clouds
Few Clouds
 Viento del S
Viento: S 11 km/h
Temperatura: 17°C
Rocío: 14°C
Humedad: 83%
Barómetro: 1005 hPa
Clouds: Few Clouds
Visibility: 10 km
Cloud details: Few Clouds 396 m
2022/12/08 16:00 LEIB 081600Z 18006KT 9999 FEW013 17/14 Q1005 NOSIG
LEBL - Barcelona Airpor, Spain
Distance from station: NNO 225km
Actualización: Thu, 08-Dec-2022 5:00pm CET
Lluvia débil, Mist, Cubierto
Lluvia débil, Mist, Cubierto
 Viento del NNO
Viento: NNO 6 km/h
Temperatura: 12°C
Rocío: 11°C
Humedad: 94%
Barómetro: 1004 hPa
Resumen: Lluvia débil, Mist
Clouds: Cubierto
Visibility: 2 km
Cloud details: Cubierto 152 m
2022/12/08 16:00 LEBL 081600Z 33003KT 250V010 1700 -RA BR OVC005 12/11 Q1004 NOSIG
 
LEVC - Valencia (civ/Mi, Spain
Distance from station: NO 188km
Actualización: Thu, 08-Dec-2022 5:00pm CET
Few Clouds
Few Clouds
 Viento del NNO
Viento: NNO 6 km/h
Temperatura: 14°C
Rocío: 13°C
Humedad: 94%
Barómetro: 1003 hPa
Clouds: Few Clouds
Visibility: 7 km
Cloud details: Few Clouds 305 m
2022/12/08 16:00 LEVC 081600Z 33003KT 7000 FEW010 14/13 Q1003 NOSIG
LEGE - Gerona/Costa Bra, Spain
Distance from station: N 276km
Actualización: Thu, 08-Dec-2022 5:13pm CET
Lluvia débil, Mist, Cubierto
Lluvia débil, Mist, Cubierto
 Viento del S
Viento: S 6 km/h
Temperatura: 13°C
Rocío: 12°C
Humedad: 94%
Barómetro: 1004 hPa
Resumen: Lluvia débil, Mist
Clouds: Cubierto
Visibility: 2 km
Cloud details: Muy nuboso 122 m
Cubierto 1219 m
2022/12/08 16:13 LEGE 081613Z 18003KT 1500 -RA BR BKN004 OVC040 13/12 Q1004
 
LEAL - Alicante/El Alte, Spain
Distance from station: OSO 344km
Actualización: Thu, 08-Dec-2022 5:00pm CET
Few Clouds
Few Clouds
 Viento del calm
Viento: Calma
Temperatura: 16°C
Rocío: 13°C
Humedad: 83%
Barómetro: 1005 hPa
Clouds: Few Clouds
Visibility: 10 km
Cloud details: Few Clouds 488 m
2022/12/08 16:00 LEAL 081600Z 00000KT 9999 FEW016 16/13 Q1005 NOSIG
LEAM - Almeria Airport, Spain
Distance from station: SSO 56km
Actualización: Thu, 08-Dec-2022 5:00pm CET
Few Clouds
Few Clouds
 Viento del OSO
Viento: OSO 11 km/h
Temperatura: 17°C
Rocío: 14°C
Humedad: 83%
Barómetro: 1005 hPa
Clouds: Few Clouds
Visibility: 10 km
Cloud details: Few Clouds 914 m
2022/12/08 16:00 LEAM 081600Z 24006KT 9999 FEW030 17/14 Q1005
 
LEZG - Zaragoza (mil/Ci, Spain
Distance from station: NO 431km
Actualización: Thu, 08-Dec-2022 5:13pm CET
Light drizzle, Mist, Cubierto
Light drizzle, Mist, Cubierto
 Viento del E
Viento: E 11 km/h
Temperatura: 10°C
Sensación frio: 8°C
Rocío: 9°C
Humedad: 94%
Barómetro: 1002 hPa
Resumen: Light drizzle, Mist
Clouds: Cubierto
Visibility: 2 km
Cloud details: Cubierto 91 m
2022/12/08 16:13 LEZG 081613Z 10006KT 080V140 2000 -DZ BR OVC003 10/09 Q1002
LEMD - Madrid/Barajas, Spain
Distance from station: ONO 234km
Actualización: Thu, 08-Dec-2022 5:00pm CET
Muy nuboso
Muy nuboso
 Viento del SSE
Viento: SSE 17 km/h
Temperatura: 12°C
Rocío: 11°C
Humedad: 94%
Barómetro: 1001 hPa
Clouds: Muy nuboso
Visibility: 10 km
Cloud details: Parcialmente nuboso 366 m
Muy nuboso 1219 m
Muy nuboso 1829 m
2022/12/08 16:00 LEMD 081600Z 15009KT 110V190 9999 SCT012 BKN040 BKN060 12/11 Q1001 NOSIG
 
LEGR - Granada Airport, Spain
Distance from station: OSO 62km
Actualización: Thu, 08-Dec-2022 5:00pm CET
Parcialmente nuboso
Parcialmente nuboso
 Viento del SSO
Viento: SSO 13 km/h, Racha: 31 km/h
Temperatura: 17°C
Rocío: 10°C
Humedad: 64%
Barómetro: 1005 hPa
Clouds: Parcialmente nuboso
Visibility: 10 km
Cloud details: Few Clouds 914 m
Parcialmente nuboso 2438 m
2022/12/08 16:00 LEGR 081600Z 20007G17KT 140V280 9999 FEW030 SCT080 17/10 Q1005
LEMG - Malaga (civ/Mil), Spain
Distance from station: OSO 227km
Actualización: Thu, 08-Dec-2022 5:19pm CET
Lluvia débil, Muy nuboso
Lluvia débil, Muy nuboso
 Viento del E
Viento: E 19 km/h
Temperatura: 16°C
Rocío: 16°C
Humedad: 100%
Barómetro: 1005 hPa
Resumen: Lluvia débil
Clouds: Muy nuboso
Visibility: 5 km
Cloud details: Parcialmente nuboso 305 m
Muy nuboso 853 m
Muy nuboso 1433 m
2022/12/08 16:19 LEMG 081619Z 10010KT 4500 -RA SCT010 BKN028 BKN047 16/16 Q1005 NOSIG
 
LEZL - Sevilla (civ/Mil, Spain
Distance from station: S 318km
Actualización: Thu, 08-Dec-2022 5:00pm CET
Few Clouds
Few Clouds
 Viento del SO
Viento: SO 11 km/h
Temperatura: 17°C
Rocío: 15°C
Humedad: 88%
Barómetro: 1002 hPa
Clouds: Few Clouds
Visibility: 10 km
Cloud details: Few Clouds 610 m
2022/12/08 16:00 LEZL 081600Z 22006KT 9999 FEW020 17/15 Q1002 NOSIG
LEVT - Vitoria, Spain
Distance from station: NO 226km
Actualización: Thu, 08-Dec-2022 5:00pm CET
Muy nuboso
Muy nuboso
 Viento del varies
Viento: varies 4 km/h
Temperatura: 8°C
Rocío: 8°C
Humedad: 100%
Barómetro: 1000 hPa
Clouds: Muy nuboso
Visibility: 10 km
Cloud details: Parcialmente nuboso 457 m
Muy nuboso 1463 m
2022/12/08 16:00 LEVT 081600Z VRB02KT 9999 SCT015 BKN048 08/08 Q1000
 
LEBB - Bilbao/Sondica, Spain
Distance from station: NNO 235km
Actualización: Thu, 08-Dec-2022 5:00pm CET
Parcialmente nuboso
Parcialmente nuboso
 Viento del E
Viento: E 17 km/h
Temperatura: 12°C
Rocío: 10°C
Humedad: 88%
Barómetro: 999 hPa
Clouds: Parcialmente nuboso
Visibility: 10 km
Cloud details: Few Clouds 823 m
Parcialmente nuboso 2103 m
2022/12/08 16:00 LEBB 081600Z 08009KT 9999 FEW027 SCT069 12/10 Q0999 NOSIG
LESO - San Sebastian/Fu, Spain
Distance from station: N 231km
Actualización: Thu, 08-Dec-2022 5:00pm CET
Lluvia, Cubierto
Lluvia, Cubierto
 Viento del varies
Viento: varies 2 km/h
Temperatura: 12°C
Rocío: 10°C
Humedad: 88%
Barómetro: 1000 hPa
Resumen: Lluvia
Clouds: Cubierto
Visibility: 7 km
Cloud details: Parcialmente nuboso 1372 m
Cubierto 1829 m
2022/12/08 16:00 LESO 081600Z VRB01KT 7000 RA SCT045 OVC060 12/10 Q1000
 
LEVD - Valladolid(Mil/C, Spain
Distance from station: ONO 239km
Actualización: Thu, 08-Dec-2022 5:00pm CET
Parcialmente nuboso
Parcialmente nuboso
 Viento del S
Viento: S 9 km/h
Temperatura: 10°C
Sensación frio: 9°C
Rocío: 9°C
Humedad: 94%
Barómetro: 999 hPa
Clouds: Parcialmente nuboso
Visibility: 10 km
Cloud details: Few Clouds 518 m
Parcialmente nuboso 1311 m
2022/12/08 16:00 LEVD 081600Z 19005KT 9999 FEW017 SCT043 10/09 Q0999
LESA - Salamanca (civ/M, Spain
Distance from station: ONO 349km
Actualización: Thu, 08-Dec-2022 5:00pm CET
Few Clouds
Few Clouds
 Viento del SSO
Viento: SSO 13 km/h
Temperatura: 10°C
Sensación frio: 8°C
Rocío: 9°C
Humedad: 94%
Barómetro: 998 hPa
Clouds: Few Clouds
Visibility: 10 km
Cloud details: Few Clouds 610 m
2022/12/08 16:00 LESA 081600Z 21007KT 160V260 9999 FEW020 10/09 Q0998 RERA
 
LEXJ - Santander/Paraya, Spain
Distance from station: NNO 247km
Actualización: Thu, 08-Dec-2022 5:00pm CET
Few Clouds
Few Clouds
 Viento del ENE
Viento: ENE 7 km/h
Temperatura: 14°C
Rocío: 10°C
Humedad: 77%
Barómetro: 997 hPa
Clouds: Few Clouds
Visibility: 10 km
Cloud details: Few Clouds 1829 m
2022/12/08 16:00 LEXJ 081600Z 07004KT 040V110 9999 FEW060 14/10 Q0997
LEAS - Asturias/Aviles, Spain
Distance from station: NO 214km
Actualización: Thu, 08-Dec-2022 5:00pm CET
Parcialmente nuboso
Parcialmente nuboso
 Viento del E
Viento: E 7 km/h
Temperatura: 12°C
Rocío: 10°C
Humedad: 88%
Barómetro: 998 hPa
Clouds: Parcialmente nuboso
Visibility: 10 km
Cloud details: Few Clouds 457 m
Parcialmente nuboso 1981 m
2022/12/08 16:00 LEAS 081600Z 09004KT 060V120 9999 FEW015 SCT065 12/10 Q0998 TEMPO RA
 
LECO - La Coruna/Alvedr, Spain
Distance from station: ONO 222km
Actualización: Thu, 08-Dec-2022 5:00pm CET
Parcialmente nuboso
Parcialmente nuboso
 Viento del varies
Viento: varies 2 km/h
Temperatura: 14°C
Rocío: 12°C
Humedad: 88%
Barómetro: 996 hPa
Clouds: Parcialmente nuboso
Visibility: 10 km
Cloud details: Few Clouds 183 m
Parcialmente nuboso 1250 m
2022/12/08 16:00 LECO 081600Z VRB01KT 9999 FEW006 SCT041 14/12 Q0996 TEMPO 1500 RADZ BCFG
LEVX - Vigo/Peinador, Spain
Distance from station: O 214km
Actualización: Thu, 08-Dec-2022 5:00pm CET
Few Clouds
Few Clouds
 Viento del SSE
Viento: SSE 7 km/h
Temperatura: 13°C
Rocío: 11°C
Humedad: 88%
Barómetro: 996 hPa
Clouds: Few Clouds
Visibility: 10 km
Cloud details: Few Clouds 213 m
2022/12/08 16:00 LEVX 081600Z 16004KT 090V260 9999 FEW007 13/11 Q0996 NOSIG